createdAt,value
2022-11-05T00:02:28.708Z,7.59
2022-11-05T00:05:13.951Z,7.59
2022-11-05T00:08:00.346Z,7.58
2022-11-05T00:10:29.665Z,7.57
2022-11-05T00:13:16.434Z,7.57
2022-11-05T00:16:02.189Z,7.57
2022-11-05T00:18:32.090Z,7.55
2022-11-05T00:21:00.040Z,7.54
2022-11-05T00:23:45.559Z,7.51
2022-11-05T00:26:13.581Z,7.49
2022-11-05T00:28:44.089Z,7.51
2022-11-05T00:31:13.052Z,7.49
2022-11-05T00:33:43.359Z,7.48
2022-11-05T00:36:12.051Z,7.48
2022-11-05T00:38:40.241Z,7.46
2022-11-05T00:41:08.118Z,7.46
2022-11-05T00:43:50.165Z,7.46
2022-11-05T00:46:18.178Z,7.46
2022-11-05T00:49:05.339Z,7.48
2022-11-05T00:51:33.208Z,7.49
2022-11-05T00:54:01.407Z,7.50
2022-11-05T00:56:29.259Z,7.52
2022-11-05T00:58:57.596Z,7.53
2022-11-05T01:01:25.755Z,7.51
2022-11-05T01:03:55.567Z,7.52
2022-11-05T01:06:23.432Z,7.52
2022-11-05T01:08:51.618Z,7.53
2022-11-05T01:11:34.078Z,7.52
2022-11-05T01:14:02.858Z,7.54
2022-11-05T01:16:30.745Z,7.52
2022-11-05T01:19:00.711Z,7.49
2022-11-05T01:21:28.796Z,7.47
2022-11-05T01:23:57.186Z,7.49
2022-11-05T01:26:25.135Z,7.44
2022-11-05T01:28:53.757Z,7.45
2022-11-05T01:31:21.980Z,7.42
2022-11-05T01:33:50.393Z,7.42
2022-11-05T01:36:19.727Z,7.40
2022-11-05T01:38:47.888Z,7.43
2022-11-05T01:41:15.830Z,7.41
2022-11-05T01:43:48.281Z,7.41
2022-11-05T01:46:17.453Z,7.42
2022-11-05T01:48:45.670Z,7.40
2022-11-05T01:51:15.693Z,7.42
2022-11-05T01:53:46.918Z,7.38
2022-11-05T01:56:15.939Z,7.38
2022-11-05T01:58:46.565Z,7.37
2022-11-05T02:01:17.088Z,7.35
2022-11-05T02:03:46.298Z,7.35
2022-11-05T02:06:16.952Z,6.97
2022-11-05T02:08:54.953Z,7.36
2022-11-05T02:11:22.950Z,7.36
2022-11-05T02:13:51.222Z,7.39
2022-11-05T02:16:24.575Z,7.40
2022-11-05T02:18:58.527Z,7.39
2022-11-05T02:21:46.788Z,7.37
2022-11-05T02:24:41.866Z,7.36
2022-11-05T02:27:17.422Z,7.36
2022-11-05T02:30:06.275Z,7.41
2022-11-05T02:32:52.644Z,7.42
2022-11-05T02:35:29.127Z,7.40
2022-11-05T02:38:03.169Z,7.41
2022-11-05T02:40:35.507Z,7.40
2022-11-05T02:43:07.196Z,7.41
2022-11-05T02:45:42.267Z,7.38
2022-11-05T02:48:16.044Z,7.39
2022-11-05T02:50:50.368Z,7.41
2022-11-05T02:53:21.639Z,7.42
2022-11-05T02:55:52.754Z,7.41
2022-11-05T02:58:20.803Z,7.43
2022-11-05T03:00:50.700Z,7.39
2022-11-05T03:03:24.373Z,7.40
2022-11-05T03:06:01.937Z,7.43
2022-11-05T03:08:38.174Z,7.42
2022-11-05T03:11:11.756Z,7.40
2022-11-05T03:13:46.095Z,7.40
2022-11-05T03:16:19.127Z,7.38
2022-11-05T03:18:52.427Z,7.39
2022-11-05T03:21:23.037Z,7.38
2022-11-05T03:23:55.176Z,7.38
2022-11-05T03:26:25.192Z,7.38
2022-11-05T03:28:55.417Z,7.39
2022-11-05T03:31:32.867Z,7.40
2022-11-05T03:34:02.591Z,7.39
2022-11-05T03:36:33.551Z,7.41
2022-11-05T03:39:03.976Z,7.40
2022-11-05T03:41:34.015Z,7.40
2022-11-05T03:44:05.051Z,7.40
2022-11-05T03:46:35.642Z,7.38
2022-11-05T03:49:07.614Z,7.37
2022-11-05T03:51:39.916Z,7.38
2022-11-05T03:54:08.438Z,7.34
2022-11-05T03:56:39.037Z,7.37
2022-11-05T03:59:08.600Z,7.38
2022-11-05T04:01:37.565Z,7.36
2022-11-05T04:04:07.643Z,7.37
2022-11-05T04:06:53.193Z,7.37
2022-11-05T04:09:38.862Z,7.36
2022-11-05T04:12:24.329Z,7.35
2022-11-05T04:14:52.214Z,7.35
2022-11-05T04:17:19.387Z,7.32
2022-11-05T04:20:06.234Z,7.30
2022-11-05T04:22:52.827Z,7.27
2022-11-05T04:25:21.236Z,7.22
2022-11-05T04:27:50.155Z,7.24
2022-11-05T04:30:20.867Z,7.24
2022-11-05T04:32:58.666Z,7.25
2022-11-05T04:35:28.946Z,7.26
2022-11-05T04:37:57.202Z,7.22
2022-11-05T04:40:25.236Z,7.25
2022-11-05T04:42:54.606Z,7.26
2022-11-05T04:45:23.418Z,7.25
2022-11-05T04:47:51.680Z,7.23
2022-11-05T04:50:19.926Z,7.25
2022-11-05T04:52:49.559Z,7.26
2022-11-05T04:55:17.521Z,7.27
2022-11-05T04:57:48.076Z,7.28
2022-11-05T05:00:16.817Z,7.29
2022-11-05T05:02:45.139Z,7.31
2022-11-05T05:05:13.907Z,7.31
2022-11-05T05:07:42.572Z,7.29
2022-11-05T05:10:12.193Z,7.32
2022-11-05T05:12:40.562Z,7.30
2022-11-05T05:15:08.676Z,7.32
2022-11-05T05:17:36.961Z,7.33
2022-11-05T05:20:22.200Z,7.34
2022-11-05T05:22:54.349Z,7.31
2022-11-05T05:25:24.125Z,7.28
2022-11-05T05:27:52.319Z,7.28
2022-11-05T05:30:20.493Z,7.32
2022-11-05T05:32:48.784Z,7.32
2022-11-05T05:35:16.848Z,7.28
2022-11-05T05:37:45.651Z,7.32
2022-11-05T05:40:13.726Z,7.30
2022-11-05T05:42:43.712Z,7.30
2022-11-05T05:45:12.714Z,7.32
2022-11-05T05:47:41.084Z,7.31
2022-11-05T05:50:09.219Z,7.33
2022-11-05T05:52:37.445Z,7.33
2022-11-05T05:55:05.569Z,7.32
2022-11-05T05:57:34.941Z,7.36
2022-11-05T06:00:05.575Z,7.37
2022-11-05T06:02:34.279Z,7.38
2022-11-05T06:05:02.272Z,7.38
2022-11-05T06:07:35.965Z,7.39
2022-11-05T06:10:05.513Z,7.36
2022-11-05T06:12:33.777Z,7.32
2022-11-05T06:15:01.698Z,7.35
2022-11-05T06:17:31.315Z,7.37
2022-11-05T06:19:59.549Z,7.35
2022-11-05T06:22:27.895Z,7.36
2022-11-05T06:24:55.823Z,7.38
2022-11-05T06:27:24.138Z,7.37
2022-11-05T06:29:52.010Z,7.36
2022-11-05T06:32:20.193Z,7.37
2022-11-05T06:34:49.538Z,7.40
2022-11-05T06:37:17.939Z,7.38
2022-11-05T06:39:45.848Z,7.40
2022-11-05T06:42:18.660Z,7.39
2022-11-05T06:44:47.366Z,7.39
2022-11-05T06:47:15.612Z,7.43
2022-11-05T06:49:46.555Z,7.43
2022-11-05T06:52:16.646Z,7.45
2022-11-05T06:54:45.010Z,7.48
2022-11-05T06:57:13.647Z,7.46
2022-11-05T06:59:41.697Z,7.49
2022-11-05T07:02:11.507Z,7.48
2022-11-05T07:04:39.453Z,7.50
2022-11-05T07:07:07.651Z,7.51
2022-11-05T07:09:40.600Z,7.50
2022-11-05T07:12:08.944Z,7.56
2022-11-05T07:14:36.972Z,7.58
2022-11-05T07:17:05.497Z,7.65
2022-11-05T07:19:33.544Z,7.71
2022-11-05T07:22:01.860Z,7.74
2022-11-05T07:24:29.958Z,7.76
2022-11-05T07:26:59.560Z,7.77
2022-11-05T07:29:27.632Z,7.79
2022-11-05T07:31:55.947Z,7.84
2022-11-05T07:34:24.010Z,7.88
2022-11-05T07:36:52.315Z,7.90
2022-11-05T07:39:20.269Z,7.95
2022-11-05T07:41:48.572Z,7.98
2022-11-05T07:44:17.925Z,7.96
2022-11-05T07:46:46.221Z,7.94
2022-11-05T07:49:14.144Z,7.92
2022-11-05T07:51:42.448Z,7.99
2022-11-05T07:54:10.496Z,8.02
2022-11-05T07:56:38.740Z,8.05
2022-11-05T07:59:06.934Z,8.06
2022-11-05T08:01:36.935Z,8.07
2022-11-05T08:04:05.190Z,8.08
2022-11-05T08:06:33.553Z,8.15
2022-11-05T08:09:01.453Z,8.18
2022-11-05T08:11:29.817Z,8.24
2022-11-05T08:13:57.704Z,8.33
2022-11-05T08:16:25.932Z,8.31
2022-11-05T08:18:55.269Z,8.32
2022-11-05T08:21:23.945Z,8.29
2022-11-05T08:23:51.840Z,8.32
2022-11-05T08:26:22.250Z,8.37
2022-11-05T08:28:50.446Z,8.43
2022-11-05T08:31:18.672Z,8.42
2022-11-05T08:33:46.621Z,8.45
2022-11-05T08:36:16.275Z,8.42
2022-11-05T08:38:44.180Z,8.42
2022-11-05T08:41:12.590Z,8.41
2022-11-05T08:43:40.519Z,8.43
2022-11-05T08:46:08.739Z,8.39
2022-11-05T08:48:36.848Z,8.38
2022-11-05T08:51:05.171Z,8.38
2022-11-05T08:53:34.574Z,8.41
2022-11-05T08:56:02.981Z,8.42
2022-11-05T08:58:30.980Z,8.48
2022-11-05T09:01:04.486Z,8.57
2022-11-05T09:03:33.499Z,8.74
2022-11-05T09:06:01.847Z,8.88
2022-11-05T09:08:29.848Z,8.93
2022-11-05T09:11:01.032Z,8.48
2022-11-05T09:13:28.997Z,8.96
2022-11-05T09:15:59.133Z,8.98
2022-11-05T09:18:27.564Z,9.04
2022-11-05T09:20:55.740Z,9.04
2022-11-05T09:23:23.699Z,9.04
2022-11-05T09:25:52.226Z,9.04
2022-11-05T09:28:24.004Z,9.03
2022-11-05T09:30:52.992Z,9.04
2022-11-05T09:33:22.063Z,9.04
2022-11-05T09:35:50.260Z,9.02
2022-11-05T09:38:18.636Z,9.01
2022-11-05T09:40:50.684Z,9.08
2022-11-05T09:43:20.743Z,9.09
2022-11-05T09:45:54.419Z,9.09
2022-11-05T09:48:26.462Z,9.10
2022-11-05T09:54:20.535Z,9.19
2022-11-05T09:56:49.173Z,9.25
2022-11-05T09:59:19.194Z,9.22
2022-11-05T10:01:49.554Z,9.21
2022-11-05T10:04:19.081Z,9.16
2022-11-05T10:06:50.460Z,9.27
2022-11-05T10:09:25.224Z,9.37
2022-11-05T10:11:56.899Z,9.24
2022-11-05T10:14:26.781Z,9.45
2022-11-05T10:17:00.021Z,9.42
2022-11-05T10:19:30.689Z,9.40
2022-11-05T10:22:07.156Z,9.40
2022-11-05T10:24:35.542Z,9.35
2022-11-05T10:27:04.872Z,9.38
2022-11-05T10:29:35.080Z,9.40
2022-11-05T10:32:07.425Z,9.46
2022-11-05T10:34:37.701Z,9.42
2022-11-05T10:37:06.514Z,9.46
2022-11-05T10:39:40.823Z,9.41
2022-11-05T10:42:18.353Z,9.48
2022-11-05T10:44:49.119Z,9.56
2022-11-05T10:47:34.994Z,9.59
2022-11-05T10:50:09.556Z,9.65
2022-11-05T10:52:39.759Z,9.73
2022-11-05T10:55:12.465Z,9.73
2022-11-05T10:57:42.179Z,9.67
2022-11-05T11:00:20.904Z,9.83
2022-11-05T11:03:02.918Z,9.75
2022-11-05T11:05:32.756Z,9.78
2022-11-05T11:08:02.776Z,9.80
2022-11-05T11:10:43.654Z,9.76
2022-11-05T11:13:20.413Z,9.81
2022-11-05T11:15:50.923Z,9.93
2022-11-05T11:18:27.002Z,9.84
2022-11-05T11:20:54.962Z,9.90
2022-11-05T11:23:23.506Z,10.00
2022-11-05T11:25:52.944Z,9.93
2022-11-05T11:28:23.913Z,9.87
2022-11-05T11:30:55.204Z,9.96
2022-11-05T11:33:28.330Z,9.95
2022-11-05T11:35:56.567Z,9.83
2022-11-05T11:38:27.430Z,9.82
2022-11-05T11:41:01.419Z,9.83
2022-11-05T11:43:31.816Z,9.83
2022-11-05T11:46:05.448Z,9.86
2022-11-05T11:48:37.404Z,9.92
2022-11-05T11:51:17.974Z,9.83
2022-11-05T11:53:48.945Z,9.80
2022-11-05T11:56:18.871Z,9.86
2022-11-05T11:58:48.513Z,9.81
2022-11-05T12:01:42.541Z,9.84
2022-11-05T12:04:21.274Z,9.91
2022-11-05T12:06:52.716Z,9.83
2022-11-05T12:09:25.074Z,9.81
2022-11-05T12:11:57.139Z,9.82
2022-11-05T12:14:32.549Z,9.88
2022-11-05T12:17:08.662Z,9.85
2022-11-05T12:20:01.083Z,9.87
2022-11-05T12:22:37.769Z,9.86
2022-11-05T12:25:14.080Z,9.80
2022-11-05T12:27:48.371Z,9.81
2022-11-05T12:30:17.963Z,9.79
2022-11-05T12:33:04.514Z,9.76
2022-11-05T12:35:45.701Z,9.77
2022-11-05T12:38:23.544Z,9.76
2022-11-05T12:41:10.847Z,9.75
2022-11-05T12:43:45.533Z,9.72
2022-11-05T12:46:22.245Z,9.77
2022-11-05T12:48:59.234Z,9.79
2022-11-05T12:51:34.717Z,9.84
2022-11-05T12:54:10.829Z,9.82
2022-11-05T12:56:42.758Z,9.82
2022-11-05T12:59:13.873Z,9.81
2022-11-05T13:01:45.082Z,9.79
2022-11-05T13:04:16.454Z,9.80
2022-11-05T13:06:51.114Z,9.80
2022-11-05T13:09:23.454Z,9.83
2022-11-05T13:11:53.980Z,9.76
2022-11-05T13:14:23.567Z,9.73
2022-11-05T13:16:55.021Z,9.67
2022-11-05T13:19:24.955Z,9.66
2022-11-05T13:21:55.741Z,9.61
2022-11-05T13:24:26.380Z,9.59
2022-11-05T13:26:55.575Z,9.55
2022-11-05T13:29:26.634Z,9.52
2022-11-05T13:31:57.953Z,9.47
2022-11-05T13:34:25.818Z,9.46
2022-11-05T13:37:14.437Z,9.48
2022-11-05T13:39:48.193Z,9.45
2022-11-05T13:42:37.322Z,9.51
2022-11-05T13:45:15.055Z,9.50
2022-11-05T13:47:54.336Z,9.42
2022-11-05T13:50:44.461Z,9.39
2022-11-05T13:53:32.040Z,9.37
2022-11-05T13:56:07.583Z,9.32
2022-11-05T13:58:53.679Z,9.28
2022-11-05T14:01:30.350Z,9.22
2022-11-05T14:03:58.691Z,9.21
2022-11-05T14:06:27.560Z,9.17
2022-11-05T14:08:57.976Z,9.14
2022-11-05T14:11:29.495Z,9.10
2022-11-05T14:13:59.989Z,9.04
2022-11-05T14:16:29.827Z,8.99
2022-11-05T14:19:12.942Z,8.96
2022-11-05T14:21:48.604Z,8.94
2022-11-05T14:24:25.645Z,8.93
2022-11-05T14:27:12.086Z,8.92
2022-11-05T14:29:42.227Z,8.87
2022-11-05T14:32:25.547Z,8.89
2022-11-05T14:35:01.875Z,8.89
2022-11-05T14:37:34.564Z,8.88
2022-11-05T14:40:24.586Z,8.88
2022-11-05T14:42:53.902Z,8.82
2022-11-05T14:45:28.001Z,8.78
2022-11-05T14:47:57.289Z,8.68
2022-11-05T14:50:29.177Z,8.62
2022-11-05T14:52:58.452Z,8.57
2022-11-05T14:55:28.749Z,8.53
2022-11-05T14:58:26.935Z,8.48
2022-11-05T15:00:58.176Z,8.46
2022-11-05T15:03:30.559Z,8.39
2022-11-05T15:06:05.541Z,8.36
2022-11-05T15:08:37.556Z,8.29
2022-11-05T15:11:10.469Z,8.29
2022-11-05T15:13:42.556Z,8.25
2022-11-05T15:16:17.327Z,8.18
2022-11-05T15:18:46.871Z,8.09
2022-11-05T15:21:16.295Z,8.07
2022-11-05T15:23:47.246Z,8.02
2022-11-05T15:26:20.757Z,7.91
2022-11-05T15:28:50.068Z,7.87
2022-11-05T15:31:26.555Z,7.83
2022-11-05T15:34:10.906Z,7.77
2022-11-05T15:36:39.259Z,7.67
2022-11-05T15:39:29.537Z,7.59
2022-11-05T15:41:58.861Z,7.48
2022-11-05T15:44:28.247Z,7.33
2022-11-05T15:47:14.826Z,7.18
2022-11-05T15:49:44.176Z,7.11
2022-11-05T15:52:16.346Z,6.96
2022-11-05T15:54:44.816Z,6.86
2022-11-05T15:57:20.644Z,6.82
2022-11-05T15:59:48.722Z,6.76
2022-11-05T16:02:26.600Z,6.72
2022-11-05T16:04:54.649Z,6.67
2022-11-05T16:07:23.509Z,6.61
2022-11-05T16:09:53.066Z,6.58
2022-11-05T16:12:26.445Z,6.68
2022-11-05T16:14:58.930Z,6.68
2022-11-05T16:17:29.152Z,6.80
2022-11-05T16:19:57.491Z,6.80
2022-11-05T16:22:26.157Z,6.66
2022-11-05T16:24:54.104Z,6.48
2022-11-05T16:27:23.238Z,6.34
2022-11-05T16:29:52.734Z,6.30
2022-11-05T16:32:28.364Z,6.32
2022-11-05T16:35:01.629Z,6.43
2022-11-05T16:37:31.021Z,6.32
2022-11-05T16:39:59.281Z,6.21
2022-11-05T16:42:37.810Z,6.12
2022-11-05T16:45:06.442Z,6.10
2022-11-05T16:47:37.425Z,6.08
2022-11-05T16:50:14.759Z,6.09
2022-11-05T16:52:42.757Z,6.15
2022-11-05T16:55:11.899Z,6.23
2022-11-05T16:57:40.358Z,6.18
2022-11-05T17:00:11.274Z,6.13
2022-11-05T17:02:40.280Z,6.13
2022-11-05T17:05:12.626Z,6.14
2022-11-05T17:07:42.722Z,6.15
2022-11-05T17:10:14.899Z,6.18
2022-11-05T17:12:43.214Z,6.09
2022-11-05T17:15:22.619Z,5.92
2022-11-05T17:17:50.621Z,5.72
2022-11-05T17:20:30.698Z,5.51
2022-11-05T17:23:03.123Z,5.46
2022-11-05T17:25:31.852Z,5.44
2022-11-05T17:29:47.138Z,5.35
2022-11-05T17:32:15.556Z,5.15
2022-11-05T17:34:43.985Z,5.27
2022-11-05T17:37:12.398Z,5.39
2022-11-05T17:39:40.680Z,4.21
2022-11-05T17:42:09.346Z,4.69
2022-11-05T17:44:38.688Z,3.52
2022-11-05T17:47:09.429Z,4.70
2022-11-05T17:49:37.552Z,5.46
2022-11-05T17:52:06.114Z,5.53
2022-11-05T17:54:34.399Z,4.87
2022-11-05T17:57:04.017Z,4.38
2022-11-05T17:59:32.477Z,3.90
2022-11-05T18:02:01.010Z,5.23
2022-11-05T18:04:30.796Z,5.01
2022-11-05T18:06:59.618Z,4.81
2022-11-05T18:09:27.871Z,4.24
2022-11-05T18:11:56.339Z,4.69
2022-11-05T18:14:24.638Z,4.74
2022-11-05T18:16:55.250Z,4.85
2022-11-05T18:19:23.835Z,4.83
2022-11-05T18:21:54.466Z,4.95
2022-11-05T18:24:23.431Z,5.14
2022-11-05T18:26:52.095Z,5.28
2022-11-05T18:29:20.265Z,5.65
2022-11-05T18:31:48.962Z,5.85
2022-11-05T18:34:17.375Z,5.83
2022-11-05T18:36:45.852Z,5.90
2022-11-05T18:39:15.485Z,5.58
2022-11-05T18:41:44.881Z,5.81
2022-11-05T18:44:16.938Z,5.86
2022-11-05T18:47:03.172Z,6.00
2022-11-05T18:49:31.463Z,6.04
2022-11-05T18:51:59.969Z,5.45
2022-11-05T18:54:29.787Z,5.12
2022-11-05T18:56:58.321Z,4.86
2022-11-05T18:59:37.096Z,4.12
2022-11-05T19:02:07.396Z,6.15
2022-11-05T19:04:36.704Z,5.95
2022-11-05T19:07:11.416Z,4.26
2022-11-05T19:09:42.705Z,5.99
2022-11-05T19:12:11.475Z,3.99
2022-11-05T19:14:39.933Z,4.00
2022-11-05T19:17:08.472Z,5.81
2022-11-05T19:19:37.137Z,4.53
2022-11-05T19:22:06.928Z,5.16
2022-11-05T19:24:35.535Z,4.28
2022-11-05T19:27:07.534Z,5.20
2022-11-05T19:29:36.002Z,5.18
2022-11-05T19:32:04.473Z,5.17
2022-11-05T19:34:33.254Z,5.11
2022-11-05T19:37:03.224Z,4.79
2022-11-05T19:39:31.457Z,4.66
2022-11-05T19:42:03.642Z,4.66
2022-11-05T19:44:34.104Z,4.48
2022-11-05T19:47:02.705Z,3.90
2022-11-05T19:49:31.611Z,4.35
2022-11-05T19:52:00.102Z,4.73
2022-11-05T19:54:30.029Z,4.81
2022-11-05T19:56:58.782Z,4.55
2022-11-05T19:59:28.412Z,4.34
2022-11-05T20:01:58.805Z,4.49
2022-11-05T20:04:29.238Z,4.53
2022-11-05T20:06:57.790Z,4.54
2022-11-05T20:09:26.346Z,4.57
2022-11-05T20:11:58.371Z,3.53
2022-11-05T20:14:27.991Z,4.27
2022-11-05T20:17:00.337Z,4.03
2022-11-05T20:19:31.984Z,3.91
2022-11-05T20:22:01.599Z,3.42
2022-11-05T20:24:30.932Z,3.72
2022-11-05T20:26:59.685Z,3.59
2022-11-05T20:29:35.078Z,2.63
2022-11-05T20:32:05.543Z,3.51
2022-11-05T20:34:39.249Z,4.80
2022-11-05T20:37:08.382Z,5.01
2022-11-05T20:39:38.891Z,4.77
2022-11-05T20:42:08.032Z,5.01
2022-11-05T20:44:38.920Z,4.74
2022-11-05T20:47:08.913Z,4.79
2022-11-05T20:49:40.207Z,4.99
2022-11-05T20:52:08.848Z,4.20
2022-11-05T20:54:37.456Z,3.85
2022-11-05T20:57:08.489Z,4.85
2022-11-05T20:59:52.101Z,4.23
2022-11-05T21:02:22.693Z,4.10
2022-11-05T21:04:52.775Z,3.64
2022-11-05T21:07:22.900Z,3.79
2022-11-05T21:09:52.153Z,4.91
2022-11-05T21:12:21.685Z,4.30
2022-11-05T21:14:51.161Z,4.96
2022-11-05T21:17:21.769Z,4.98
2022-11-05T21:19:50.655Z,3.61
2022-11-05T21:22:25.378Z,5.07
2022-11-05T21:24:53.307Z,5.08
2022-11-05T21:27:23.899Z,4.70
2022-11-05T21:29:51.998Z,5.04
2022-11-05T21:32:20.722Z,4.79
2022-11-05T21:34:49.142Z,4.78
2022-11-05T21:37:17.590Z,4.89
2022-11-05T21:39:48.151Z,4.90
2022-11-05T21:42:16.706Z,4.81
2022-11-05T21:44:44.880Z,4.81
2022-11-05T21:47:14.132Z,4.79
2022-11-05T21:49:42.251Z,4.60
2022-11-05T21:52:29.731Z,4.81
2022-11-05T21:55:28.412Z,4.77
2022-11-05T21:58:14.621Z,4.50
2022-11-05T22:00:42.911Z,4.81
2022-11-05T22:03:11.323Z,4.61
2022-11-05T22:05:39.600Z,4.63
2022-11-05T22:08:07.969Z,4.78
2022-11-05T22:10:37.638Z,4.76
2022-11-05T22:13:06.200Z,4.47
2022-11-05T22:15:34.748Z,4.64
2022-11-05T22:18:03.125Z,3.98
2022-11-05T22:20:31.367Z,4.41
2022-11-05T22:22:59.728Z,4.49
2022-11-05T22:25:27.880Z,4.33
2022-11-05T22:27:57.669Z,4.44
2022-11-05T22:30:27.388Z,4.41
2022-11-05T22:32:58.533Z,4.39
2022-11-05T22:35:26.938Z,4.39
2022-11-05T22:37:55.445Z,4.26
2022-11-05T22:40:24.304Z,3.99
2022-11-05T22:42:52.760Z,4.22
2022-11-05T22:45:22.344Z,4.16
2022-11-05T22:47:50.859Z,3.12
2022-11-05T22:50:19.316Z,4.21
2022-11-05T22:52:47.695Z,4.23
2022-11-05T22:55:15.926Z,4.18
2022-11-05T22:57:44.828Z,4.14
2022-11-05T23:00:17.163Z,4.00
2022-11-05T23:02:47.204Z,4.18
2022-11-05T23:05:16.286Z,4.21
2022-11-05T23:08:02.128Z,4.21
2022-11-05T23:10:47.806Z,3.71
2022-11-05T23:13:16.679Z,4.23
2022-11-05T23:16:03.061Z,4.03
2022-11-05T23:18:59.179Z,3.98
2022-11-05T23:21:44.894Z,4.11
2022-11-05T23:24:14.015Z,4.06
2022-11-05T23:26:51.000Z,3.98
2022-11-05T23:29:20.893Z,3.92
2022-11-05T23:32:07.074Z,3.83
2022-11-05T23:34:37.216Z,3.76
2022-11-05T23:37:23.464Z,3.64
2022-11-05T23:39:51.904Z,3.29
2022-11-05T23:42:38.159Z,3.51
2022-11-05T23:45:25.911Z,2.87
2022-11-05T23:48:12.133Z,3.21
2022-11-05T23:50:43.047Z,2.80
2022-11-05T23:53:11.248Z,2.71
2022-11-05T23:55:40.640Z,2.65
2022-11-05T23:58:09.726Z,2.67
